Terminal Aerodrome Forecast
Issued by NWS Grand Junction, CO

Home | Current Version | Previous Version | Text Only | Print | Product List | Glossary On
Versions: 1 2 3 4 5 6 7 8 9 10 11 12 13 14 15 16 17 18 19 20 21 22 23 24 25 26 27 28 29 30 31 32 33 34
032
FTUS45 KGJT 062235 AAB
TAFGJT
TAF AMD
KGJT 062235Z 0623/0718 26017G40KT P6SM -TSRA VCSH SCT060 OVC100CB
     FM070000 24015G22KT P6SM VCTS SCT070 BKN100CB
     FM070200 24010KT P6SM VCSH BKN110
     FM070400 16005KT P6SM BKN090
     FM070600 12007KT P6SM BKN120=

USA.gov is the U.S. government's official web portal to all federal, state and local government web resources and services.